Schneifelwetter: Wetterstation Hallschlag, 537 m . NN
Wetterdaten: Mittwoch, 30.11.2011
Datum Zeit Temp. A. Feuchte A. Luftdruck Regen Wind Richtung Richtung Sonnenschein Helligkeit T Regen Taupunkt Windchill
30.11.2011 00:09 6,2 C 99 % 1015 hPa 0,0 l/m 30,7 km/h (5 Bft) W-SW22.5 240 0 min 0 lux 0 min 6,1 C -4,9 C
30.11.2011 00:24 6,3 C 99 % 1016 hPa 0,3 l/m 32,1 km/h (5 Bft) SW45 235 0 min 0 lux 15 min 6,2 C -5,0 C
30.11.2011 00:39 6,4 C 99 % 1016 hPa 0,0 l/m 28,5 km/h (4 Bft) W-SW45 250 0 min 0 lux 0 min 6,3 C -4,0 C
30.11.2011 00:54 6,4 C 99 % 1016 hPa 0,0 l/m 23,3 km/h (4 Bft) W-SW45 245 0 min 0 lux 0 min 6,3 C -2,5 C
30.11.2011 01:09 6,5 C 99 % 1017 hPa 0,0 l/m 28,7 km/h (4 Bft) W-SW45 245 0 min 0 lux 0 min 6,4 C -3,9 C
30.11.2011 01:24 6,5 C 99 % 1017 hPa 0,3 l/m 25,3 km/h (4 Bft) W-SW22.5 255 0 min 0 lux 15 min 6,4 C -3,0 C
30.11.2011 01:39 6,5 C 99 % 1017 hPa 0,0 l/m 24,8 km/h (4 Bft) W-SW45 245 0 min 0 lux 0 min 6,4 C -2,9 C
30.11.2011 01:54 6,5 C 99 % 1017 hPa 0,0 l/m 23,4 km/h (4 Bft) W-SW45 240 0 min 0 lux 0 min 6,4 C -2,4 C
30.11.2011 02:09 6,5 C 99 % 1017 hPa 0,0 l/m 23,5 km/h (4 Bft) W22.5 260 0 min 0 lux 0 min 6,4 C -2,4 C
30.11.2011 02:24 6,4 C 99 % 1017 hPa 0,0 l/m 23,7 km/h (4 Bft) W-SW22.5 255 0 min 0 lux 0 min 6,3 C -2,6 C
30.11.2011 02:39 6,4 C 99 % 1017 hPa 0,0 l/m 21,2 km/h (4 Bft) W22.5 260 0 min 0 lux 0 min 6,3 C -1,8 C
30.11.2011 02:54 6,2 C 99 % 1018 hPa 0,0 l/m 17,6 km/h (3 Bft) W22.5 260 0 min 0 lux 0 min 6,1 C -0,7 C
30.11.2011 03:09 6,1 C 99 % 1018 hPa 0,0 l/m 22,1 km/h (4 Bft) W22.5 265 0 min 0 lux 0 min 6,0 C -2,5 C
30.11.2011 03:24 6,0 C 99 % 1018 hPa 0,0 l/m 21,7 km/h (4 Bft) W45 270 0 min 0 lux 0 min 5,9 C -2,5 C
30.11.2011 03:39 6,0 C 99 % 1019 hPa 0,0 l/m 19,0 km/h (3 Bft) W45 265 0 min 0 lux 0 min 5,9 C -1,5 C
30.11.2011 03:54 5,9 C 99 % 1019 hPa 0,0 l/m 18,8 km/h (3 Bft) W22.5 270 0 min 0 lux 0 min 5,8 C -1,5 C
30.11.2011 04:09 5,6 C 99 % 1019 hPa 0,0 l/m 15,5 km/h (3 Bft) W22.5 270 0 min 0 lux 0 min 5,5 C -0,4 C
30.11.2011 04:24 5,2 C 98 % 1019 hPa 0,0 l/m 16,9 km/h (3 Bft) W45 265 0 min 0 lux 0 min 4,9 C -1,6 C
30.11.2011 04:39 4,6 C 97 % 1020 hPa 0,0 l/m 13,8 km/h (3 Bft) W45 270 0 min 0 lux 0 min 4,2 C -0,8 C
30.11.2011 04:54 4,5 C 98 % 1020 hPa 0,0 l/m 16,0 km/h (3 Bft) W-SW22.5 255 0 min 0 lux 0 min 4,2 C -2,0 C
30.11.2011 05:09 4,6 C 98 % 1020 hPa 0,0 l/m 17,4 km/h (3 Bft) W22.5 260 0 min 0 lux 0 min 4,3 C -2,6 C
30.11.2011 05:24 4,3 C 98 % 1020 hPa 0,0 l/m 13,3 km/h (3 Bft) W-SW 250 0 min 0 lux 0 min 4,0 C -0,8 C
30.11.2011 05:40 3,9 C 97 % 1020 hPa 0,0 l/m 11,6 km/h (2 Bft) W-SW22.5 255 0 min 0 lux 0 min 3,5 C -0,3 C
30.11.2011 05:55 3,5 C 97 % 1021 hPa 0,0 l/m 0,0 km/h (0 Bft) W 260 0 min 0 lux 0 min 3,1 C 3,5 C
30.11.2011 06:10 3,2 C 98 % 1021 hPa 0,0 l/m 1,0 km/h (0 Bft) W 260 0 min 0 lux 0 min 2,9 C 3,2 C
30.11.2011 06:25 3,2 C 98 % 1021 hPa 0,0 l/m 7,4 km/h (2 Bft) W-SW 255 0 min 0 lux 0 min 2,9 C 2,3 C
30.11.2011 06:40 2,8 C 98 % 1022 hPa 0,0 l/m 6,2 km/h (2 Bft) W-SW22.5 255 0 min 0 lux 0 min 2,5 C 2,8 C
30.11.2011 06:55 2,4 C 98 % 1022 hPa 0,0 l/m 7,4 km/h (2 Bft) W-SW 255 0 min 0 lux 0 min 2,1 C 1,4 C
30.11.2011 07:10 2,2 C 98 % 1022 hPa 0,0 l/m 8,4 km/h (2 Bft) W-SW 255 0 min 0 lux 0 min 1,9 C 0,3 C
30.11.2011 07:25 1,7 C 97 % 1022 hPa 0,0 l/m 11,2 km/h (2 Bft) W-SW22.5 250 0 min 0 lux 0 min 1,3 C -2,5 C
30.11.2011 07:40 1,4 C 97 % 1022 hPa 0,0 l/m 1,5 km/h (1 Bft) W-SW 245 0 min 0 lux 0 min 1,0 C 1,4 C
30.11.2011 08:00 1,2 C 98 % 1023 hPa 0,0 l/m 3,9 km/h (1 Bft) W-SW 245 0 min 156 lux 0 min 0,9 C 1,2 C
30.11.2011 08:00 1,2 C 98 % 1023 hPa 0,0 l/m 3,9 km/h (1 Bft) W-SW 245 0 min 156 lux 0 min 0,9 C 1,2 C
30.11.2011 08:15 0,8 C 98 % 1023 hPa 0,0 l/m 8,1 km/h (2 Bft) W-SW 255 0 min 689 lux 0 min 0,5 C -0,9 C
30.11.2011 08:30 0,6 C 98 % 1023 hPa 0,0 l/m 9,5 km/h (2 Bft) W-SW22.5 250 0 min 1,65 klux 0 min 0,3 C -2,4 C
30.11.2011 08:45 0,5 C 98 % 1023 hPa 0,0 l/m 12,5 km/h (3 Bft) W-SW 255 0 min 8,03 klux 0 min 0,2 C -4,8 C
30.11.2011 09:00 0,7 C 98 % 1023 hPa 0,0 l/m 13,5 km/h (3 Bft) W22.5 265 0 min 8,85 klux 0 min 0,4 C -5,2 C
30.11.2011 09:15 1,0 C 98 % 1023 hPa 0,0 l/m 10,4 km/h (2 Bft) W-SW22.5 250 0 min 5,92 klux 0 min 0,7 C -2,7 C
30.11.2011 09:31 1,1 C 98 % 1024 hPa 0,0 l/m 11,3 km/h (2 Bft) W-SW22.5 250 0 min 19,3 klux 0 min 0,8 C -3,2 C
30.11.2011 09:46 1,4 C 99 % 1024 hPa 0,0 l/m 11,5 km/h (2 Bft) W-SW22.5 250 0 min 21,9 klux 0 min 1,3 C -3,0 C
30.11.2011 10:01 2,0 C 99 % 1024 hPa 0,0 l/m 15,5 km/h (3 Bft) W-SW22.5 255 0 min 26,2 klux 0 min 1,9 C -4,8 C
30.11.2011 10:15 2,5 C 99 % 1024 hPa 0,0 l/m 15,4 km/h (3 Bft) W-SW22.5 255 0 min 29,3 klux 0 min 2,4 C -4,2 C
30.11.2011 10:30 2,9 C 99 % 1024 hPa 0,0 l/m 16,6 km/h (3 Bft) W-SW22.5 255 0 min 30,4 klux 0 min 2,8 C -4,3 C
30.11.2011 10:45 3,1 C 99 % 1024 hPa 0,0 l/m 19,6 km/h (3 Bft) W22.5 260 0 min 33,1 klux 0 min 3,0 C -5,5 C
30.11.2011 11:01 3,5 C 99 % 1024 hPa 0,0 l/m 20,5 km/h (4 Bft) W-SW22.5 255 0 min 33,8 klux 0 min 3,4 C -5,3 C
30.11.2011 11:16 3,8 C 99 % 1024 hPa 0,0 l/m 19,1 km/h (3 Bft) W-SW22.5 250 0 min 36,7 klux 0 min 3,7 C -4,3 C
30.11.2011 11:31 4,1 C 99 % 1025 hPa 0,0 l/m 20,4 km/h (4 Bft) W-SW22.5 250 0 min 34,3 klux 0 min 4,0 C -4,5 C
30.11.2011 11:45 4,5 C 99 % 1025 hPa 0,0 l/m 16,5 km/h (3 Bft) W-SW22.5 255 0 min 37,1 klux 0 min 4,4 C -2,3 C
30.11.2011 12:00 4,6 C 98 % 1025 hPa 0,0 l/m 17,6 km/h (3 Bft) W-SW 255 15 min 40,0 klux 0 min 4,3 C -2,7 C
30.11.2011 12:15 5,1 C 98 % 1025 hPa 0,0 l/m 20,6 km/h (4 Bft) W-SW22.5 250 0 min 38,7 klux 0 min 4,8 C -3,3 C
30.11.2011 12:31 5,6 C 98 % 1025 hPa 0,0 l/m 21,2 km/h (4 Bft) W-SW45 255 0 min 38,2 klux 0 min 5,3 C -2,8 C
30.11.2011 12:46 5,8 C 96 % 1024 hPa 0,0 l/m 19,7 km/h (3 Bft) W-SW45 240 15 min 43,6 klux 0 min 5,2 C -2,0 C
30.11.2011 13:01 6,2 C 95 % 1025 hPa 0,0 l/m 20,4 km/h (4 Bft) SW22.5 225 15 min 45,6 klux 0 min 5,5 C -1,8 C
30.11.2011 13:15 6,2 C 94 % 1025 hPa 0,0 l/m 18,5 km/h (3 Bft) SW45 225 0 min 23,8 klux 0 min 5,3 C -1,0 C
30.11.2011 13:30 6,0 C 94 % 1025 hPa 0,0 l/m 20,0 km/h (4 Bft) W-SW45 240 0 min 22,4 klux 0 min 5,1 C -1,9 C
30.11.2011 13:45 5,9 C 94 % 1025 hPa 0,0 l/m 19,2 km/h (3 Bft) W22.5 260 0 min 28,5 klux 0 min 5,0 C -1,7 C
30.11.2011 14:01 6,0 C 93 % 1025 hPa 0,0 l/m 18,5 km/h (3 Bft) W-SW45 250 0 min 23,6 klux 0 min 5,0 C -1,3 C
30.11.2011 14:16 6,1 C 93 % 1024 hPa 0,0 l/m 13,6 km/h (3 Bft) W-SW67.5 240 0 min 29,2 klux 0 min 5,1 C 1,1 C
30.11.2011 14:31 6,0 C 93 % 1024 hPa 0,0 l/m 17,2 km/h (3 Bft) W-SW45 250 0 min 16,0 klux 0 min 5,0 C -0,7 C
30.11.2011 14:45 5,9 C 93 % 1024 hPa 0,0 l/m 10,8 km/h (2 Bft) W-SW22.5 245 0 min 28,1 klux 0 min 4,9 C 2,5 C
30.11.2011 15:00 5,8 C 93 % 1024 hPa 0,0 l/m 14,4 km/h (3 Bft) SW45 225 0 min 24,2 klux 0 min 4,8 C 0,3 C
30.11.2011 15:15 5,6 C 92 % 1024 hPa 0,0 l/m 14,7 km/h (3 Bft) SW67.5 230 0 min 20,1 klux 0 min 4,4 C -0,0 C
30.11.2011 15:31 5,2 C 91 % 1024 hPa 0,0 l/m 12,7 km/h (3 Bft) S-SW22.5 205 0 min 18,2 klux 0 min 3,9 C 0,6 C
30.11.2011 15:46 4,7 C 92 % 1024 hPa 0,0 l/m 8,5 km/h (2 Bft) SW22.5 220 0 min 14,1 klux 0 min 3,5 C 2,9 C
30.11.2011 16:00 4,1 C 92 % 1024 hPa 0,0 l/m 5,2 km/h (1 Bft) S-SW 205 0 min 11,3 klux 0 min 2,9 C 4,1 C
30.11.2011 16:15 3,5 C 92 % 1024 hPa 0,0 l/m 7,7 km/h (2 Bft) S-SW 200 0 min 5,79 klux 0 min 2,3 C 2,3 C
30.11.2011 16:30 2,9 C 92 % 1024 hPa 0,0 l/m 5,0 km/h (1 Bft) S-SW 200 0 min 1,85 klux 0 min 1,7 C 2,9 C
30.11.2011 16:45 2,3 C 93 % 1024 hPa 0,0 l/m 7,8 km/h (2 Bft) SW22.5 230 0 min 620 lux 0 min 1,3 C 1,0 C
30.11.2011 17:01 2,1 C 93 % 1024 hPa 0,0 l/m 8,2 km/h (2 Bft) SW22.5 230 0 min 176 lux 0 min 1,1 C 0,4 C
30.11.2011 17:16 1,5 C 93 % 1024 hPa 0,0 l/m 4,7 km/h (1 Bft) S 175 0 min 26 lux 0 min 0,5 C 1,5 C
30.11.2011 17:31 0,6 C 94 % 1024 hPa 0,0 l/m 2,8 km/h (1 Bft) S 175 0 min 0 lux 0 min -0,3 C 0,6 C
30.11.2011 17:45 0,3 C 94 % 1024 hPa 0,0 l/m 6,5 km/h (2 Bft) S 175 0 min 0 lux 0 min -0,5 C 0,2 C
30.11.2011 18:00 0,1 C 95 % 1024 hPa 0,0 l/m 4,8 km/h (1 Bft) S 180 0 min 0 lux 0 min -0,6 C 0,1 C
30.11.2011 18:15 -0,3 C 95 % 1024 hPa 0,0 l/m 0,0 km/h (0 Bft) S 180 0 min 0 lux 0 min -1,0 C -0,3 C
30.11.2011 18:31 -0,6 C 95 % 1024 hPa 0,0 l/m 0,0 km/h (0 Bft) S 180 0 min 0 lux 0 min -1,3 C -0,6 C
30.11.2011 18:46 -0,8 C 96 % 1024 hPa 0,0 l/m 0,0 km/h (0 Bft) S 180 0 min 0 lux 0 min -1,4 C -0,8 C
30.11.2011 19:00 -1,0 C 96 % 1024 hPa 0,0 l/m 0,0 km/h (0 Bft) S 180 0 min 0 lux 0 min -1,6 C -1,0 C
30.11.2011 19:15 -1,3 C 96 % 1024 hPa 0,0 l/m 0,0 km/h (0 Bft) S 180 0 min 0 lux 0 min -1,9 C -1,3 C
30.11.2011 19:30 -1,1 C 97 % 1024 hPa 0,0 l/m 0,0 km/h (0 Bft) S 180 0 min 0 lux 0 min -1,5 C -1,1 C
30.11.2011 19:45 -1,3 C 97 % 1023 hPa 0,0 l/m 0,0 km/h (0 Bft) S 180 0 min 0 lux 0 min -1,7 C -1,3 C
30.11.2011 20:01 -1,4 C 97 % 1023 hPa 0,0 l/m 0,0 km/h (0 Bft) S 180 0 min 0 lux 0 min -1,8 C -1,4 C
30.11.2011 20:16 -1,5 C 97 % 1023 hPa 0,0 l/m 0,0 km/h (0 Bft) S 180 0 min 0 lux 0 min -1,9 C -1,5 C
30.11.2011 20:30 -1,4 C 97 % 1023 hPa 0,0 l/m 0,0 km/h (0 Bft) S 180 0 min 0 lux 0 min -1,8 C -1,4 C
30.11.2011 20:45 -1,2 C 97 % 1022 hPa 0,0 l/m 0,0 km/h (0 Bft) S 180 0 min 0 lux 0 min -1,6 C -1,2 C
30.11.2011 21:00 -1,0 C 97 % 1022 hPa 0,0 l/m 0,0 km/h (0 Bft) S 180 0 min 0 lux 0 min -1,4 C -1,0 C
30.11.2011 21:15 -0,8 C 97 % 1022 hPa 0,0 l/m 5,7 km/h (1 Bft) S 180 0 min 0 lux 0 min -1,2 C -0,8 C
30.11.2011 21:31 -0,7 C 98 % 1022 hPa 0,0 l/m 1,0 km/h (0 Bft) S 180 0 min 0 lux 0 min -1,0 C -0,7 C
30.11.2011 21:46 -0,7 C 98 % 1022 hPa 0,0 l/m 0,0 km/h (0 Bft) S 180 0 min 0 lux 0 min -1,0 C -0,7 C
30.11.2011 22:00 -0,8 C 97 % 1022 hPa 0,0 l/m 0,0 km/h (0 Bft) S 180 0 min 0 lux 0 min -1,2 C -0,8 C
30.11.2011 22:15 -0,6 C 98 % 1022 hPa 0,0 l/m 12,7 km/h (3 Bft) S22.5 175 0 min 0 lux 0 min -0,9 C -6,2 C
30.11.2011 22:30 0,2 C 99 % 1021 hPa 0,0 l/m 10,3 km/h (2 Bft) S-SO 165 0 min 0 lux 0 min 0,1 C -3,5 C
30.11.2011 22:45 0,6 C 99 % 1021 hPa 0,0 l/m 12,8 km/h (3 Bft) S45 180 0 min 0 lux 0 min 0,5 C -4,9 C
30.11.2011 23:01 1,1 C 99 % 1021 hPa 0,0 l/m 13,8 km/h (3 Bft) S22.5 180 0 min 0 lux 0 min 1,0 C -4,9 C
30.11.2011 23:16 1,3 C 99 % 1021 hPa 0,0 l/m 17,1 km/h (3 Bft) S22.5 175 0 min 0 lux 0 min 1,2 C -6,6 C
30.11.2011 23:30 1,4 C 99 % 1021 hPa 0,0 l/m 14,6 km/h (3 Bft) S45 175 0 min 0 lux 0 min 1,3 C -5,1 C
30.11.2011 23:45 1,6 C 99 % 1021 hPa 0,3 l/m 17,4 km/h (3 Bft) S-SO22.5 165 0 min 0 lux 15 min 1,5 C -6,3 C
30.11.2011 23:55 1,5 C 99 % 1020 hPa 0,0 l/m 13,5 km/h (3 Bft) S45 175 0 min 0 lux 0 min 1,4 C -4,3 C
_ Min-Zeit 20:16 15:31 00:09 - 05:55 - - - - - 20:16 23:16
Minimum _ -1,5 C 91 % 1015 hPa - 0,0 km/h (0 Bft) - - - - - -1,9 C -6,6 C
_ Max-Zeit 01:09 00:09 11:31 00:24 00:24 - - 12:00 13:01 00:24 01:09 16:00
Maximum _ 6,5 C 99 % 1025 hPa 0,3 l/m 32,1 km/h
SW (5 Bft)
- - 15 min 45,6 klux 15 min 6,4 C 4,1 C
Durchschnitt _ 3,0 C 97 % 1022 hPa #0,9 l/m 12,3 km/h (3 Bft) W-SW - #45 min. 8,30 klux #45 min. 2,5 C -1,5 C